North Platte, NE

12:09 AM CST on December 21, 2014 (GMT -0600)
K0KDC North Platte | Change Station
CLOSE
Current Station
Personal Weather Station
Location: North Platte, NE
Elevation: 2808 ft
Nearby Weather Stations

Elev 2808 ft 41.14 °N, 100.77 °W | Updated 4 minutes ago

Mostly Cloudy
Mostly Cloudy
27.5 °F
Feels Like 28 °F
N
0.0
Wind Variable Wind from North
Gusts 0.0 mph

Today
High -- | Low -- °F
--% Chance of Precip.
Yesterday
High -- | Low -- °F
Precip. -- in
8:04 AM 5:17 PM
Waning Crescent, 1% visible
Pressure 29.98 in
Visibility 9.0 miles
Clouds Mostly Cloudy 11000 ft
Windchill 28 °F
Dew Point 25 °F
Humidity 91%
Rainfall -999.00 in
Snow Depth Not available.
UV 0 out of 12
Pollen .10 out of 12
Air Quality Not available.
Flu Activity Not available.
METAR KLBF 210553Z AUTO 33003KT 9SM BKN110 M03/M04 A2991 RMK AO2 SLP150 I1000 I6000 T10331044 10011 21056 400331094 58010

More Conditions Fewer Conditions

Pressure 29.98 in
Visibility 9.0 miles
Clouds Mostly Cloudy 11000 ft
Windchill 28 °F
Dew Point 25 °F
Humidity 91%
Rainfall -999.00 in
Snow Depth Not available.
UV 0 out of 12
Pollen .10 out of 12
Air Quality Not available.
Flu Activity Not available.
METAR KLBF 210553Z AUTO 33003KT 9SM BKN110 M03/M04 A2991 RMK AO2 SLP150 I1000 I6000 T10331044 10011 21056 400331094 58010

More Conditions Fewer Conditions

Nowcast | as of 11:12 PM CST on December 20, 2014

Patchy fog is possible tonight in central and southwest Nebraska...especially in the Platte valley which includes the Interstate 80 corridor. Visibility restrictions to about a mile are expected.

×

10-Day Weather Forecast

Almanac

Astronomy

Dec. 21, 2014 Rise Set
Actual Time
Civil Twilight
Nautical Twilight
Astronomical Twilight
Moon
Length of Visible Light
Length of Day
Tomorrow will be .
, % of the Moon is Illuminated

Today's Extremes

State Highs State Lows

Community

WunderPhotos

Upload Photos

1,779,359 photos uploaded!

WunderBlogs® & News

Nearby

Air Quality

  Air Quality AQ Index Pollutant
Not available.

Snow Depth

Station Depth Elevation

Earthquake Activity

City Distance Mag. Time & Date
Minimum magnitude displayed is 2.5.

Coastal Water Temperatures

Place Temperature

Nearby Weather Stations